Time;durP1;ratioP1;P1;durP2;ratioP2;P2;SDS_P1;SDS_P2;PMS_P1;PMS_P2;Temp;Humidity;BMP_temperature;BMP_pressure;BME280_temperature;BME280_humidity;BME280_pressure;Samples;Min_cycle;Max_cycle;Signal;HPM_P1;HPM_P2
2021/10/15 00:03:00;;;;;;;8.70;6.38;;;;;;;8.13;100.00;99901.94;5034919;28;20045;-74
2021/10/15 00:05:45;;;;;;;8.40;6.55;;;;;;;8.19;100.00;99907.09;5035773;28;20041;-74
2021/10/15 00:08:29;;;;;;;7.65;5.28;;;;;;;8.20;100.00;99905.34;5035824;28;20037;-74
2021/10/15 00:11:13;;;;;;;8.40;5.90;;;;;;;8.18;100.00;99902.72;5035584;28;20328;-74
2021/10/15 00:13:57;;;;;;;8.27;5.97;;;;;;;8.20;100.00;99902.72;5035547;28;20049;-74
2021/10/15 00:16:42;;;;;;;8.38;7.03;;;;;;;8.18;100.00;99894.91;5034796;28;20053;-74
2021/10/15 00:19:26;;;;;;;7.95;5.88;;;;;;;8.24;100.00;99887.88;5035784;28;20045;-74
2021/10/15 00:22:12;;;;;;;8.95;5.90;;;;;;;8.25;100.00;99889.59;5035445;28;20049;-73
2021/10/15 00:24:56;;;;;;;9.43;5.60;;;;;;;8.22;100.00;99889.66;5035119;28;20041;-74
2021/10/15 00:27:40;;;;;;;7.07;5.55;;;;;;;8.22;100.00;99887.88;5039227;28;20057;-74
2021/10/15 00:30:25;;;;;;;6.22;5.00;;;;;;;8.25;100.00;99885.25;5039322;28;20041;-74
2021/10/15 00:33:10;;;;;;;5.78;4.35;;;;;;;8.16;100.00;99881.03;5039227;28;20045;-74
2021/10/15 00:35:54;;;;;;;8.05;5.28;;;;;;;8.15;100.00;99887.13;5039227;28;20042;-74
2021/10/15 00:38:39;;;;;;;7.55;4.88;;;;;;;8.16;100.00;99883.66;5039280;28;20042;-74
2021/10/15 00:41:23;;;;;;;8.65;5.78;;;;;;;8.16;100.00;99881.03;5038454;28;20424;-74
2021/10/15 00:44:10;;;;;;;5.95;4.57;;;;;;;8.22;100.00;99872.22;5038305;28;20041;-74
2021/10/15 00:46:54;;;;;;;7.15;4.95;;;;;;;8.23;100.00;99876.59;5038413;28;20428;-74
2021/10/15 00:49:39;;;;;;;7.20;4.90;;;;;;;8.27;100.00;99875.66;5038946;28;20045;-74
2021/10/15 00:52:23;;;;;;;6.53;4.85;;;;;;;8.23;100.00;99873.97;5039242;28;20050;-74
2021/10/15 00:55:07;;;;;;;8.55;5.18;;;;;;;8.22;100.00;99874.00;5038098;28;20356;-74
2021/10/15 00:57:52;;;;;;;7.18;4.75;;;;;;;8.23;100.00;99873.13;5039165;28;20124;-74
2021/10/15 01:00:36;;;;;;;5.35;4.25;;;;;;;8.27;100.00;99875.66;5038148;28;20049;-74
2021/10/15 01:03:21;;;;;;;6.72;4.20;;;;;;;8.26;100.00;99862.66;5038565;28;20037;-74
2021/10/15 01:06:05;;;;;;;5.05;4.13;;;;;;;8.23;100.00;99868.75;5038619;28;20060;-74
2021/10/15 01:08:50;;;;;;;5.03;3.97;;;;;;;8.27;100.00;99865.22;5037966;28;20046;-74
2021/10/15 01:11:34;;;;;;;6.30;4.53;;;;;;;8.24;100.00;99862.66;5038745;28;20046;-74
2021/10/15 01:14:19;;;;;;;5.63;4.20;;;;;;;8.26;100.00;99853.06;5038473;28;20045;-74
2021/10/15 01:17:05;;;;;;;4.38;3.55;;;;;;;8.31;100.00;99860.81;5038440;28;20351;-74
2021/10/15 01:19:54;;;;;;;5.68;3.90;;;;;;;8.31;100.00;99856.44;5038527;28;20041;-74
2021/10/15 01:22:39;;;;;;;4.95;3.63;;;;;;;8.35;100.00;99855.53;5037602;28;20343;-74
2021/10/15 01:25:26;;;;;;;4.15;3.75;;;;;;;8.26;100.00;99858.28;5037664;28;20045;-74
2021/10/15 01:28:11;;;;;;;5.95;4.38;;;;;;;8.31;100.00;99840.78;5037390;28;20207;-74
2021/10/15 01:30:55;;;;;;;5.90;3.90;;;;;;;8.38;100.00;99858.13;5038389;28;20431;-74
2021/10/15 01:33:40;;;;;;;6.05;3.92;;;;;;;8.42;100.00;99854.59;5038166;28;20379;-74
2021/10/15 01:36:25;;;;;;;6.38;4.18;;;;;;;8.44;100.00;99849.31;5037640;28;20045;-74
2021/10/15 01:39:10;;;;;;;5.43;4.20;;;;;;;8.37;100.00;99843.31;5023450;28;20360;-74
2021/10/15 01:41:54;;;;;;;4.10;3.15;;;;;;;8.38;100.00;99844.19;5023395;28;20111;-74
2021/10/15 01:44:38;;;;;;;5.40;3.85;;;;;;;8.38;100.00;99837.25;5038166;28;20049;-74
2021/10/15 01:47:23;;;;;;;7.50;6.00;;;;;;;8.50;100.00;99835.31;5023202;28;20053;-74
2021/10/15 01:50:07;;;;;;;4.30;3.65;;;;;;;8.45;100.00;99829.31;5037831;28;20037;-74
2021/10/15 01:52:53;;;;;;;5.25;3.47;;;;;;;8.40;100.00;99830.25;5037153;28;20056;-74
2021/10/15 01:55:37;;;;;;;6.13;4.22;;;;;;;8.46;100.00;99829.28;5037930;28;20042;-74
2021/10/15 01:58:21;;;;;;;4.18;3.28;;;;;;;8.37;100.00;99827.66;5037728;28;20092;-74
2021/10/15 02:01:06;;;;;;;5.40;3.42;;;;;;;8.41;100.00;99825.88;5023045;28;20038;-74
2021/10/15 02:03:52;;;;;;;12.40;4.40;;;;;;;8.43;100.00;99830.19;5036863;28;20049;-74
2021/10/15 02:06:36;;;;;;;7.80;4.15;;;;;;;8.54;100.00;99827.41;5036925;28;20041;-74
2021/10/15 02:09:21;;;;;;;5.45;3.97;;;;;;;8.46;100.00;99824.06;5036810;28;20042;-74
2021/10/15 02:12:06;;;;;;;7.57;4.35;;;;;;;8.40;100.00;99830.25;5037503;28;20450;-74
2021/10/15 02:14:51;;;;;;;7.50;4.45;;;;;;;8.47;100.00;99827.53;5037449;28;20041;-74
2021/10/15 02:17:36;;;;;;;7.68;4.93;;;;;;;8.52;100.00;99823.13;5037545;28;20428;-74
2021/10/15 02:20:21;;;;;;;5.05;3.33;;;;;;;8.51;100.00;99821.38;5008896;28;20436;-74
2021/10/15 02:23:06;;;;;;;6.30;4.60;;;;;;;8.52;100.00;99825.72;5022592;28;20422;-74
2021/10/15 02:25:51;;;;;;;6.25;4.43;;;;;;;8.42;100.00;99825.03;5036478;28;20053;-74
2021/10/15 02:28:35;;;;;;;5.75;4.78;;;;;;;8.47;100.00;99815.34;5036256;28;20345;-74
2021/10/15 02:31:19;;;;;;;5.55;4.70;;;;;;;8.52;100.00;99823.97;5036403;28;20124;-74
2021/10/15 02:34:04;;;;;;;7.40;5.22;;;;;;;8.43;100.00;99811.06;5037230;28;20072;-74
2021/10/15 02:36:49;;;;;;;6.28;4.78;;;;;;;8.46;100.00;99813.63;5036952;28;20052;-74
2021/10/15 02:39:34;;;;;;;7.03;5.20;;;;;;;8.44;100.00;99823.22;5036310;28;20045;-74
2021/10/15 02:42:18;;;;;;;6.47;5.35;;;;;;;8.46;100.00;99816.25;5036731;28;20042;-74
2021/10/15 02:45:03;;;;;;;6.00;4.70;;;;;;;8.49;100.00;99815.34;5036821;28;20050;-74
2021/10/15 02:47:47;;;;;;;8.55;5.30;;;;;;;8.48;100.00;99814.44;5035944;28;20095;-74
2021/10/15 02:50:32;;;;;;;6.53;5.13;;;;;;;8.50;100.00;99817.06;5036697;28;20043;-74
2021/10/15 02:53:16;;;;;;;7.40;5.63;;;;;;;8.47;100.00;99820.56;5036669;28;20450;-74
2021/10/15 02:56:01;;;;;;;7.07;5.50;;;;;;;8.51;100.00;99817.00;5035864;28;20045;-74
2021/10/15 02:58:45;;;;;;;8.45;5.90;;;;;;;8.51;100.00;99816.16;5022122;28;20061;-74
2021/10/15 03:01:29;;;;;;;7.07;5.68;;;;;;;8.50;100.00;99804.84;5035706;28;20450;-74
2021/10/15 03:04:13;;;;;;;7.43;5.85;;;;;;;8.51;100.00;99803.97;5035807;28;20436;-74
2021/10/15 03:06:59;;;;;;;8.23;6.18;;;;;;;8.55;100.00;99805.66;5036512;28;20041;-74
2021/10/15 03:09:43;;;;;;;8.65;6.32;;;;;;;8.51;100.00;99814.41;5021754;28;20049;-74
2021/10/15 03:12:27;;;;;;;9.20;6.07;;;;;;;8.56;100.00;99812.59;5036327;28;20041;-74
2021/10/15 03:15:11;;;;;;;8.43;5.80;;;;;;;8.53;100.00;99806.56;5036257;28;20042;-74
2021/10/15 03:17:56;;;;;;;10.73;6.68;;;;;;;8.43;100.00;99801.50;5035626;28;20063;-74
2021/10/15 03:20:41;;;;;;;9.45;6.65;;;;;;;8.45;100.00;99798.88;5036359;28;20069;-74
2021/10/15 03:23:25;;;;;;;9.25;6.72;;;;;;;8.32;100.00;99798.16;5036116;28;20056;-74
2021/10/15 03:26:09;;;;;;;11.15;7.75;;;;;;;8.25;100.00;99799.13;5021511;28;20424;-74
2021/10/15 03:28:53;;;;;;;11.05;7.53;;;;;;;8.27;100.00;99799.97;5035853;28;20103;-74
2021/10/15 03:31:38;;;;;;;12.98;8.75;;;;;;;8.16;100.00;99792.31;5036271;28;20355;-74
2021/10/15 03:34:22;;;;;;;15.68;11.02;;;;;;;8.19;100.00;99781.84;5036058;28;20038;-74
2021/10/15 03:37:06;;;;;;;17.10;11.35;;;;;;;8.18;100.00;99787.06;5036012;28;20049;-74
2021/10/15 03:39:52;;;;;;;18.52;12.63;;;;;;;8.19;100.00;99788.81;5035983;28;20041;-74
2021/10/15 03:42:37;;;;;;;24.20;16.55;;;;;;;8.22;100.00;99788.75;5035829;28;20037;-74
2021/10/15 03:45:22;;;;;;;28.33;18.30;;;;;;;8.18;100.00;99789.69;5035369;28;20053;-74
2021/10/15 03:48:06;;;;;;;38.33;24.90;;;;;;;8.13;100.00;99786.28;5035759;28;20124;-74
2021/10/15 03:50:51;;;;;;;36.63;25.25;;;;;;;8.17;100.00;99790.56;5035091;28;20046;-74
2021/10/15 03:53:35;;;;;;;32.50;23.10;;;;;;;8.16;100.00;99788.88;5035112;28;20435;-74
2021/10/15 03:56:19;;;;;;;24.90;17.00;;;;;;;8.09;100.00;99795.91;5034930;28;20046;-74
2021/10/15 03:59:03;;;;;;;18.58;14.18;;;;;;;8.15;100.00;99792.34;5035746;28;20042;-74
2021/10/15 04:01:48;;;;;;;16.30;12.45;;;;;;;8.18;100.00;99782.72;5038613;28;20389;-74
2021/10/15 04:04:32;;;;;;;14.73;9.90;;;;;;;8.14;100.00;99788.00;5040009;28;20045;-74
2021/10/15 04:07:17;;;;;;;13.90;9.50;;;;;;;8.15;100.00;99798.41;5039790;28;20041;-74
2021/10/15 04:10:03;;;;;;;14.50;10.30;;;;;;;8.14;100.00;99795.84;5039022;28;20045;-74
2021/10/15 04:12:47;;;;;;;17.55;10.23;;;;;;;8.18;100.00;99789.69;5039708;28;20049;-74
2021/10/15 04:15:31;;;;;;;16.15;10.63;;;;;;;8.19;100.00;99786.22;5039668;28;20041;-74
2021/10/15 04:18:16;;;;;;;14.95;10.63;;;;;;;8.16;100.00;99792.31;5038893;28;20046;-74
2021/10/15 04:21:00;;;;;;;15.75;11.63;;;;;;;8.16;100.00;99786.25;5039475;28;20137;-74
2021/10/15 04:23:45;;;;;;;16.13;10.77;;;;;;;8.17;100.00;99785.34;5038914;28;20076;-74
2021/10/15 04:26:29;;;;;;;19.25;10.68;;;;;;;8.22;100.00;99774.84;5039672;28;20049;-74
2021/10/15 04:29:13;;;;;;;14.70;10.90;;;;;;;8.16;100.00;99781.88;5038481;28;20451;-74
2021/10/15 04:31:57;;;;;;;15.45;11.55;;;;;;;8.18;100.00;99779.25;5038735;28;20052;-74
2021/10/15 04:34:42;;;;;;;15.93;11.63;;;;;;;8.21;100.00;99781.81;5039453;28;20099;-74
2021/10/15 04:37:27;;;;;;;16.48;12.00;;;;;;;8.20;100.00;99775.72;5039516;28;20045;-74
2021/10/15 04:40:11;;;;;;;16.70;12.48;;;;;;;8.22;100.00;99780.91;5038403;28;20045;-74
2021/10/15 04:42:56;;;;;;;16.42;12.45;;;;;;;8.23;100.00;99771.38;5039225;28;20041;-73
2021/10/15 04:45:40;;;;;;;14.68;10.82;;;;;;;8.24;100.00;99768.72;5039055;28;20045;-74
2021/10/15 04:48:24;;;;;;;18.05;12.63;;;;;;;8.22;100.00;99764.41;5038303;28;20041;-74
2021/10/15 04:51:09;;;;;;;16.25;12.70;;;;;;;8.24;100.00;99757.41;5038966;28;20041;-74
2021/10/15 04:53:53;;;;;;;17.52;13.05;;;;;;;8.19;100.00;99760.97;5039006;28;20049;-74
2021/10/15 04:56:38;;;;;;;16.38;12.02;;;;;;;8.25;100.00;99759.13;5038366;28;20113;-74
2021/10/15 04:59:22;;;;;;;13.13;10.45;;;;;;;8.31;100.00;99751.22;5038045;28;20042;-74
2021/10/15 05:02:07;;;;;;;17.25;11.93;;;;;;;8.31;100.00;99749.44;5038670;28;20046;-74
2021/10/15 05:04:51;;;;;;;15.15;10.95;;;;;;;8.30;100.00;99742.53;5038192;28;20037;-74
2021/10/15 05:07:37;;;;;;;15.68;11.88;;;;;;;8.29;100.00;99753.84;5038705;28;20045;-74
2021/10/15 05:10:22;;;;;;;13.80;11.77;;;;;;;8.30;100.00;99750.34;5038641;28;20069;-74
2021/10/15 05:13:06;;;;;;;16.73;11.88;;;;;;;8.35;100.00;99751.16;5038560;28;20053;-74
2021/10/15 05:15:50;;;;;;;15.68;11.93;;;;;;;8.29;100.00;99755.59;5038576;28;20037;-74
2021/10/15 05:18:36;;;;;;;18.33;13.77;;;;;;;8.32;100.00;99758.13;5037088;28;20053;-73
2021/10/15 05:21:20;;;;;;;20.30;15.30;;;;;;;8.37;100.00;99749.34;5035972;28;20240;-74
2021/10/15 05:24:05;;;;;;;19.55;13.88;;;;;;;8.36;100.00;99747.63;5035540;28;20420;-74
2021/10/15 05:26:49;;;;;;;18.92;12.90;;;;;;;8.41;100.00;99737.13;5036228;28;20049;-74
2021/10/15 05:29:33;;;;;;;18.10;13.57;;;;;;;8.43;100.00;99736.22;5021718;28;20057;-74
2021/10/15 05:32:18;;;;;;;16.70;12.43;;;;;;;8.46;100.00;99735.31;5035743;28;20128;-74
2021/10/15 05:35:05;;;;;;;16.23;12.60;;;;;;;8.41;100.00;99734.53;5035753;28;20045;-74
2021/10/15 05:37:50;;;;;;;16.45;12.77;;;;;;;8.42;100.00;99734.53;5035584;28;20397;-74
2021/10/15 05:40:34;;;;;;;17.20;13.40;;;;;;;8.40;100.00;99740.66;5036275;28;20041;-74
2021/10/15 05:43:19;;;;;;;16.92;13.05;;;;;;;8.42;100.00;99739.75;5036154;28;20098;-74
2021/10/15 05:46:04;;;;;;;17.40;13.30;;;;;;;8.43;100.00;99740.59;5036194;28;20034;-73
2021/10/15 05:48:48;;;;;;;16.25;13.55;;;;;;;8.50;100.00;99734.38;5036129;28;20334;-74
2021/10/15 05:51:36;;;;;;;17.10;14.00;;;;;;;8.45;100.00;99730.13;5036053;28;20053;-74
2021/10/15 05:54:28;;;;;;;17.15;13.50;;;;;;;8.54;100.00;99736.03;5036039;28;20042;-74
2021/10/15 06:00:08;;;;;;;16.27;13.75;;;;;;;8.55;100.00;99731.69;5037612;28;20053;-74
2021/10/15 06:02:56;;;;;;;17.00;14.65;;;;;;;8.59;100.00;99731.59;5038311;28;20121;-73
2021/10/15 06:14:43;;;;;;;15.48;13.10;;;;;;;8.65;100.00;99718.44;5036854;28;20045;-74
2021/10/15 06:17:28;;;;;;;15.98;14.27;;;;;;;8.74;100.00;99729.59;5037256;28;20427;-74
2021/10/15 06:20:13;;;;;;;17.73;14.88;;;;;;;8.84;100.00;99732.03;5036805;28;20041;-74
2021/10/15 06:22:57;;;;;;;16.02;13.50;;;;;;;8.91;100.00;99724.06;5036400;28;20045;-74
2021/10/15 06:25:41;;;;;;;15.43;13.00;;;;;;;8.95;100.00;99729.19;5036672;28;20391;-74
2021/10/15 06:28:26;;;;;;;18.27;15.60;;;;;;;8.96;100.00;99733.50;5037117;28;20128;-74
2021/10/15 06:31:11;;;;;;;16.27;13.50;;;;;;;9.06;100.00;99727.22;5036777;28;20053;-74
2021/10/15 06:33:55;;;;;;;18.27;14.30;;;;;;;8.94;100.00;99727.47;5037786;28;20049;-73
2021/10/15 06:36:40;;;;;;;18.58;14.10;;;;;;;9.13;100.00;99725.34;5036982;28;20424;-74
2021/10/15 06:39:24;;;;;;;16.10;14.02;;;;;;;9.09;100.00;99724.53;5037659;28;20420;-74
2021/10/15 06:42:09;;;;;;;14.70;12.82;;;;;;;9.16;100.00;99729.63;5036240;28;20047;-74
2021/10/15 06:44:53;;;;;;;14.35;12.27;;;;;;;9.11;100.00;99729.75;5036999;28;20430;-74
2021/10/15 06:47:38;;;;;;;15.63;13.93;;;;;;;9.12;100.00;99731.47;5037477;28;20045;-74
2021/10/15 06:50:23;;;;;;;16.17;13.00;;;;;;;9.13;100.00;99726.22;5037230;28;20052;-73
2021/10/15 06:53:09;;;;;;;15.25;12.82;;;;;;;9.14;100.00;99719.25;5036656;28;20049;-73
2021/10/15 06:55:53;;;;;;;15.85;12.70;;;;;;;9.07;100.00;99722.88;5037389;28;20049;-73
2021/10/15 06:58:38;;;;;;;13.57;12.18;;;;;;;9.19;100.00;99717.38;5037053;28;20041;-73
2021/10/15 07:01:22;;;;;;;14.52;12.95;;;;;;;9.18;100.00;99712.19;5036496;28;20079;-73
2021/10/15 07:04:07;;;;;;;15.88;13.48;;;;;;;9.14;100.00;99711.41;5022115;28;20336;-73
2021/10/15 07:06:51;;;;;;;14.55;12.80;;;;;;;9.40;100.00;99717.84;5021737;28;20053;-73
2021/10/15 07:09:35;;;;;;;14.48;11.90;;;;;;;9.52;100.00;99715.81;5036826;28;20060;-73
2021/10/15 07:12:20;;;;;;;14.75;13.00;;;;;;;9.59;99.85;99711.31;5037104;28;20045;-73
2021/10/15 07:15:06;;;;;;;17.55;13.43;;;;;;;9.77;98.56;99710.84;5036774;28;20041;-73
2021/10/15 07:17:50;;;;;;;14.10;12.45;;;;;;;9.93;97.73;99719.22;5036516;28;20128;-73
2021/10/15 07:20:36;;;;;;;13.45;12.05;;;;;;;10.25;96.46;99718.44;5036215;28;20038;-73
2021/10/15 07:23:20;;;;;;;16.65;12.57;;;;;;;10.45;94.70;99710.09;5036413;28;20095;-73
2021/10/15 07:26:05;;;;;;;13.15;11.27;;;;;;;10.60;94.54;99714.09;5036316;28;20052;-73
2021/10/15 07:28:50;;;;;;;13.75;12.15;;;;;;;10.86;92.40;99717.75;5036233;28;20057;-73
2021/10/15 07:31:35;;;;;;;12.10;10.90;;;;;;;10.68;92.48;99713.88;5035517;28;20052;-73
2021/10/15 07:34:19;;;;;;;12.27;10.65;;;;;;;10.64;92.65;99712.22;5035755;28;20455;-73
2021/10/15 07:37:03;;;;;;;14.95;12.18;;;;;;;10.94;90.95;99715.78;5036444;28;20107;-73
2021/10/15 07:39:48;;;;;;;17.95;14.25;;;;;;;11.19;89.60;99718.56;5036663;28;20042;-73
2021/10/15 07:42:33;;;;;;;15.20;12.07;;;;;;;11.36;88.74;99718.91;5035989;28;20402;-74
2021/10/15 07:45:17;;;;;;;25.85;20.23;;;;;;;11.34;88.03;99715.50;5035880;28;20037;-73
2021/10/15 07:48:02;;;;;;;13.20;11.80;;;;;;;11.34;87.01;99717.22;5035493;28;20045;-73
2021/10/15 07:50:47;;;;;;;11.07;9.88;;;;;;;11.96;84.83;99711.00;5035997;28;20329;-73
2021/10/15 07:53:32;;;;;;;12.20;10.45;;;;;;;11.76;85.14;99714.22;5021393;28;20041;-73
2021/10/15 07:56:16;;;;;;;10.70;9.68;;;;;;;12.16;82.85;99712.06;5035504;28;20052;-73
2021/10/15 07:59:00;;;;;;;10.43;9.40;;;;;;;12.53;81.95;99705.56;5035483;28;20038;-73
2021/10/15 08:01:44;;;;;;;11.20;10.00;;;;;;;12.54;81.23;99703.78;5035937;28;20049;-74
2021/10/15 08:04:29;;;;;;;10.70;9.52;;;;;;;12.41;81.22;99695.47;5035713;28;20050;-74
2021/10/15 08:07:14;;;;;;;11.20;9.85;;;;;;;12.72;81.12;99692.66;5035272;28;20056;-73
2021/10/15 08:09:58;;;;;;;11.52;9.30;;;;;;;13.09;79.58;99692.16;5021468;28;20041;-73
2021/10/15 08:12:42;;;;;;;11.25;9.38;;;;;;;12.78;79.54;99696.84;5036265;28;20424;-73
2021/10/15 08:15:28;;;;;;;11.20;9.32;;;;;;;13.18;78.97;99698.00;5036303;28;20038;-73
2021/10/15 08:18:12;;;;;;;9.70;8.70;;;;;;;12.67;78.60;99689.31;5035773;28;20046;-73
2021/10/15 08:20:57;;;;;;;11.32;9.38;;;;;;;13.17;77.47;99691.88;5035882;28;20402;-73
2021/10/15 08:23:44;;;;;;;11.05;9.80;;;;;;;13.50;76.18;99687.13;5035199;28;20043;-73
2021/10/15 08:26:29;;;;;;;10.93;8.80;;;;;;;13.30;76.36;99687.06;5034930;28;20041;-73
2021/10/15 08:29:13;;;;;;;9.90;8.50;;;;;;;13.84;75.12;99691.06;5035422;28;20054;-73
2021/10/15 08:31:58;;;;;;;9.63;8.30;;;;;;;13.20;76.11;99690.91;5035052;28;20053;-73
2021/10/15 08:34:42;;;;;;;9.85;8.60;;;;;;;13.51;75.62;99685.34;5034858;28;20053;-74
2021/10/15 08:37:26;;;;;;;8.88;8.05;;;;;;;13.72;75.17;99683.66;5021214;28;20041;-74
2021/10/15 08:40:11;;;;;;;8.77;7.88;;;;;;;13.48;75.47;99672.31;5034846;28;20404;-73
2021/10/15 08:42:56;;;;;;;8.80;7.50;;;;;;;12.89;77.35;99678.88;5035020;28;20057;-73
2021/10/15 08:45:41;;;;;;;8.63;7.70;;;;;;;13.25;75.57;99675.84;5035336;28;20046;-73
2021/10/15 08:48:25;;;;;;;7.07;6.45;;;;;;;13.99;73.56;99665.88;5039093;28;20045;-73
2021/10/15 08:51:10;;;;;;;9.75;8.23;;;;;;;13.39;75.42;99660.41;5038489;28;20071;-73
2021/10/15 08:53:58;;;;;;;7.97;7.18;;;;;;;13.63;73.27;99674.34;5038390;28;20355;-73
2021/10/15 08:56:43;;;;;;;9.15;7.00;;;;;;;12.91;74.39;99656.03;5039647;28;20041;-73
2021/10/15 08:59:48;;;;;;;8.27;7.47;;;;;;;13.39;74.59;99657.78;5038341;28;20037;-73
2021/10/15 09:02:32;;;;;;;11.05;7.97;;;;;;;13.71;71.86;99655.63;5038799;28;20045;-74
2021/10/15 09:05:27;;;;;;;12.43;8.98;;;;;;;13.79;72.16;99645.66;5038126;28;20041;-73
2021/10/15 09:08:12;;;;;;;10.13;9.10;;;;;;;14.20;71.28;99645.69;5038629;28;20038;-73
2021/10/15 09:10:57;;;;;;;8.07;7.18;;;;;;;13.59;72.78;99648.25;5038383;28;20037;-73
2021/10/15 09:13:41;;;;;;;9.10;7.32;;;;;;;13.93;72.17;99645.94;5039327;28;20076;-73
2021/10/15 09:16:26;;;;;;;10.65;8.25;;;;;;;13.70;72.79;99627.59;5038700;28;20060;-73
2021/10/15 09:19:22;;;;;;;11.30;9.63;;;;;;;14.43;70.48;99628.91;5039194;28;20033;-73
2021/10/15 09:22:13;;;;;;;7.10;6.40;;;;;;;14.53;70.36;99637.28;5037946;28;20042;-73
2021/10/15 09:25:05;;;;;;;7.40;6.53;;;;;;;14.49;68.49;99636.53;5037852;28;20061;-73
2021/10/15 09:27:50;;;;;;;6.72;5.90;;;;;;;14.96;67.40;99629.16;5038283;28;20053;-74
2021/10/15 09:30:34;;;;;;;6.07;5.47;;;;;;;15.08;66.58;99630.41;5037690;28;20108;-73
2021/10/15 09:33:20;;;;;;;6.38;5.78;;;;;;;15.58;65.79;99627.13;5038033;28;20103;-73
2021/10/15 09:36:10;;;;;;;9.77;8.55;;;;;;;16.27;64.70;99631.66;5035809;28;20718;-73
2021/10/15 09:38:54;;;;;;;8.82;6.85;;;;;;;16.33;65.22;99635.78;5036918;28;20116;-73
2021/10/15 09:41:40;;;;;;;7.00;6.30;;;;;;;16.02;63.98;99631.19;5037196;28;20056;-73
2021/10/15 09:44:30;;;;;;;6.93;5.75;;;;;;;15.59;64.86;99634.13;5036476;28;20045;-73
2021/10/15 09:47:15;;;;;;;5.20;4.75;;;;;;;15.68;63.92;99624.09;5037202;28;20069;-73
2021/10/15 09:50:03;;;;;;;7.05;5.15;;;;;;;15.78;63.56;99625.34;5037406;28;20042;-73
2021/10/15 09:52:51;;;;;;;5.63;4.75;;;;;;;15.94;63.78;99623.66;5035568;28;20428;-73
2021/10/15 09:55:40;;;;;;;5.28;4.78;;;;;;;15.71;63.17;99619.50;5035093;28;20046;-73
2021/10/15 09:58:24;;;;;;;4.95;4.55;;;;;;;15.84;63.98;99612.69;5034199;28;20337;-73
2021/10/15 10:01:08;;;;;;;6.68;5.45;;;;;;;15.66;64.08;99610.91;5038533;28;20423;-73
2021/10/15 10:03:53;;;;;;;4.85;4.35;;;;;;;15.64;63.24;99607.50;5052999;28;20041;-73
2021/10/15 10:06:38;;;;;;;8.18;4.50;;;;;;;15.46;62.29;99609.25;5055588;28;20045;-73
2021/10/15 10:09:22;;;;;;;6.70;4.68;;;;;;;15.44;63.63;99611.13;5056692;28;20048;-73
2021/10/15 10:12:07;;;;;;;5.30;4.80;;;;;;;15.31;63.87;99605.56;5056457;28;20049;-73
2021/10/15 10:14:51;;;;;;;4.90;4.40;;;;;;;15.96;62.81;99603.31;5057216;28;20112;-73
2021/10/15 10:17:41;;;;;;;8.32;4.38;;;;;;;15.58;62.25;99595.47;5057496;28;20385;-73
2021/10/15 10:20:29;;;;;;;5.40;4.80;;;;;;;16.56;61.36;99592.28;5057464;28;20037;-72
2021/10/15 10:23:24;;;;;;;4.85;4.30;;;;;;;15.99;61.51;99591.72;5055642;28;20049;-74
2021/10/15 10:26:16;;;;;;;8.48;4.18;;;;;;;15.57;64.32;99579.72;5037831;28;20448;-73
2021/10/15 10:29:02;;;;;;;;;;;;;;;14.86;63.95;99590.97;5038734;28;20164;-73
2021/10/15 10:31:48;;;;;;;5.10;4.38;;;;;;;15.54;63.54;99585.16;5037026;28;19928;-73
2021/10/15 10:34:33;;;;;;;4.40;4.00;;;;;;;16.12;63.39;99582.25;5037756;28;20041;-73
2021/10/15 10:37:18;;;;;;;5.13;4.47;;;;;;;15.30;62.85;99569.53;5037045;28;20427;-74
2021/10/15 10:40:08;;;;;;;5.22;4.72;;;;;;;15.15;63.70;99573.78;5037740;28;20052;-73
2021/10/15 10:43:03;;;;;;;5.00;4.32;;;;;;;15.09;64.77;99573.22;5035623;28;20045;-74
2021/10/15 10:46:08;;;;;;;5.05;4.40;;;;;;;15.11;64.77;99566.97;5035806;28;20042;-73
2021/10/15 10:48:52;;;;;;;6.40;4.45;;;;;;;15.27;63.62;99563.56;5036241;28;20120;-74
2021/10/15 10:51:36;;;;;;;6.18;4.82;;;;;;;15.95;62.62;99559.31;5036830;28;20045;-75
2021/10/15 10:54:21;;;;;;;4.68;4.28;;;;;;;15.59;62.87;99559.34;5034385;28;20037;-74
2021/10/15 10:57:16;;;;;;;4.30;3.78;;;;;;;16.06;60.70;99554.34;5056073;28;20045;-75
2021/10/15 11:00:22;;;;;;;5.50;3.55;;;;;;;16.26;61.62;99555.97;5055941;28;20037;-73
2021/10/15 11:03:08;;;;;;;4.03;3.60;;;;;;;15.75;58.94;99541.84;5055939;28;20036;-73
2021/10/15 11:05:53;;;;;;;4.63;3.80;;;;;;;15.90;58.73;99534.94;5056287;28;20423;-73
2021/10/15 11:08:38;;;;;;;5.60;4.32;;;;;;;15.88;58.61;99544.72;5055037;28;20041;-73
2021/10/15 11:11:22;;;;;;;5.50;4.63;;;;;;;16.17;58.41;99539.75;5056267;28;20084;-73
2021/10/15 11:14:07;;;;;;;5.65;3.72;;;;;;;16.35;57.86;99541.41;5054932;28;20056;-73
2021/10/15 11:17:07;;;;;;;4.97;3.80;;;;;;;16.27;57.76;99527.75;5042229;28;20036;-73
2021/10/15 11:20:26;;;;;;;4.80;3.58;;;;;;;16.43;57.11;99531.28;5055946;28;20094;-73
2021/10/15 11:23:11;;;;;;;7.18;5.07;;;;;;;16.40;57.02;99522.66;5055610;28;20041;-73
2021/10/15 11:25:55;;;;;;;21.65;10.02;;;;;;;16.44;55.88;99521.56;5056102;28;20419;-74
2021/10/15 11:28:40;;;;;;;3.83;3.42;;;;;;;16.12;56.16;99517.06;5054699;28;20063;-73
2021/10/15 11:31:25;;;;;;;3.53;3.22;;;;;;;16.26;56.96;99518.13;5055600;28;20458;-73
2021/10/15 11:34:11;;;;;;;3.35;3.00;;;;;;;16.03;55.68;99512.25;5054618;28;20041;-73
2021/10/15 11:37:05;;;;;;;5.22;3.70;;;;;;;15.35;58.01;99504.22;5055926;28;20041;-74
2021/10/15 11:39:49;;;;;;;5.63;3.17;;;;;;;15.43;56.89;99507.31;5036293;28;20049;-73
2021/10/15 11:42:34;;;;;;;4.18;3.28;;;;;;;15.23;57.20;99506.59;5039249;28;20083;-73
2021/10/15 11:45:22;;;;;;;4.70;2.47;;;;;;;16.12;56.87;99511.78;5054269;28;20065;-75
2021/10/15 11:48:13;;;;;;;2.92;2.72;;;;;;;15.23;58.49;99506.59;5039054;28;20060;-75
2021/10/15 11:51:00;;;;;;;7.35;3.97;;;;;;;15.24;60.36;99493.34;5038912;28;20103;-75
2021/10/15 11:53:47;;;;;;;9.25;5.45;;;;;;;14.96;59.57;99492.03;5052095;28;20061;-75
2021/10/15 11:56:34;;;;;;;4.55;3.60;;;;;;;15.70;57.72;99493.72;5051635;28;20136;-75
2021/10/15 11:59:22;;;;;;;5.13;3.40;;;;;;;15.82;57.10;99490.44;5053474;28;20048;-73
2021/10/15 12:02:06;;;;;;;3.45;3.00;;;;;;;16.25;56.93;99488.19;5053785;28;20048;-73
2021/10/15 12:04:55;;;;;;;6.20;3.70;;;;;;;16.07;58.64;99483.88;5054127;28;20033;-75
2021/10/15 12:07:39;;;;;;;3.25;3.00;;;;;;;15.74;58.59;99473.31;5039447;28;20041;-76
2021/10/15 12:10:24;;;;;;;4.85;3.50;;;;;;;16.03;59.80;99474.44;5053045;28;20115;-75
2021/10/15 12:13:08;;;;;;;4.13;3.10;;;;;;;15.97;59.31;99470.31;5053010;28;20103;-76
2021/10/15 12:15:53;;;;;;;7.63;5.00;;;;;;;16.05;60.36;99459.31;5053754;28;20044;-76
2021/10/15 12:18:37;;;;;;;7.10;4.68;;;;;;;15.53;60.31;99464.63;5053782;28;20403;-75
2021/10/15 12:21:29;;;;;;;33.03;14.43;;;;;;;15.47;60.56;99464.94;5040324;28;20037;-75
2021/10/15 12:24:43;;;;;;;21.60;10.15;;;;;;;15.50;60.97;99470.94;5059076;28;20124;-75
2021/10/15 12:27:36;;;;;;;3.75;3.35;;;;;;;15.12;61.46;99464.94;5045109;28;20041;-75
2021/10/15 12:30:24;;;;;;;7.43;4.65;;;;;;;14.95;62.62;99468.41;5059142;28;20495;-75
2021/10/15 12:33:15;;;;;;;14.40;6.53;;;;;;;14.84;61.97;99468.91;5059726;28;20103;-75
2021/10/15 12:36:23;;;;;;;4.70;3.33;;;;;;;15.34;60.93;99469.97;5045031;28;20412;-75
2021/10/15 12:39:17;;;;;;;3.88;3.33;;;;;;;14.94;61.27;99472.78;5059645;28;20041;-76
2021/10/15 12:42:15;;;;;;;3.63;3.33;;;;;;;14.58;62.30;99474.56;5045201;28;20072;-75
2021/10/15 12:45:08;;;;;;;8.68;4.05;;;;;;;14.24;63.53;99473.44;5059849;28;20098;-73
2021/10/15 12:48:00;;;;;;;7.55;4.88;;;;;;;14.06;64.08;99472.47;5044767;28;20045;-75
2021/10/15 12:50:57;;;;;;;6.60;4.72;;;;;;;14.07;63.67;99468.94;5059393;28;20041;-76
2021/10/15 12:53:49;;;;;;;8.90;6.88;;;;;;;14.03;64.37;99462.09;5058398;28;20044;-75
2021/10/15 12:56:34;;;;;;;3.33;2.58;;;;;;;14.20;64.12;99456.94;5058912;28;20040;-75
2021/10/15 12:59:18;;;;;;;5.15;3.53;;;;;;;14.41;63.86;99462.97;5059211;28;20048;-75
2021/10/15 13:02:08;;;;;;;14.23;6.05;;;;;;;14.95;63.43;99450.78;5058747;28;20052;-72
2021/10/15 13:04:56;;;;;;;8.77;4.20;;;;;;;14.51;63.63;99439.72;5058251;28;20374;-75
2021/10/15 13:07:41;;;;;;;3.20;2.58;;;;;;;14.30;64.13;99435.41;5059015;28;20037;-73